Olympic National Park, WA

7:16 PM PDT on July 30, 2016 (GMT -0700)
Lake Dawn | | Change Station

Elev 1864 ft 48.04 °N, 123.43 °W | Updated 1 minute ago

Clear
Clear
62.2 °F
Feels Like 62.2 °F
N
2.2
Wind Variable Wind from South
Gusts 3.1 mph

Today
High -- | Low -- °F
--% Chance of Precip.
Yesterday
High -- | Low -- °F
Precip. -- in
Pressure 29.95 in
Visibility 10.0 miles
Clouds Clear
Dew Point 43 °F
Humidity 49%
Rainfall 0.00 in
Snow Depth Not available.
5:48 AM 8:51 PM
Waning Crescent, 9% visible
METAR KCLM 310153Z AUTO 32009KT 10SM CLR 18/11 A2995 RMK AO2 SLP140 T01780106
Pressure 29.95 in
Visibility 10.0 miles
Clouds Clear
Dew Point 43 °F
Humidity 49%
Rainfall 0.00 in
Snow Depth Not available.
5:48 AM 8:51 PM
Waning Crescent, 9% visible
METAR KCLM 310153Z AUTO 32009KT 10SM CLR 18/11 A2995 RMK AO2 SLP140 T01780106

10-Day Weather Forecast

Almanac

Astronomy

Jul. 30, 2016 Rise Set
Actual Time
Civil Twilight
Nautical Twilight
Astronomical Twilight
Moon
Length of Visible Light
Length of Day
Tomorrow will be .
, % of the Moon is Illuminated

Today's Extremes

State Highs State Lows

Community

WunderPhotos

Upload Photos

1,928,706 photos uploaded!

WunderBlog® & News

Nearby

Air Quality

  Air Quality AQ Index Pollutant
Not available.

Snow Depth

Station Depth Elevation

Earthquake Activity

City Distance Mag. Time & Date
Minimum magnitude displayed is 2.5.

Coastal Water Temperatures

Place Temperature

Stations

Nearby Weather Stations

Station Location Temp. Windchill Dew Point Humidity Wind Precip. Elev Updated Type
                   

Watches & Warnings

There are currently no watches in effect.